createdAt,value
2017-11-21T00:00:03.721Z,1002.98
2017-11-21T00:00:29.874Z,1002.98
2017-11-21T00:00:56.019Z,1003
2017-11-21T00:01:22.166Z,1002.96
2017-11-21T00:01:48.312Z,1003
2017-11-21T00:02:14.485Z,1002.97
2017-11-21T00:02:40.625Z,1002.96
2017-11-21T00:03:06.776Z,1002.98
2017-11-21T00:03:32.928Z,1002.95
2017-11-21T00:03:59.073Z,1002.95
2017-11-21T00:04:25.222Z,1002.96
2017-11-21T00:04:51.389Z,1002.94
2017-11-21T00:05:17.535Z,1002.95
2017-11-21T00:05:43.679Z,1002.94
2017-11-21T00:06:09.820Z,1002.97
2017-11-21T00:06:35.972Z,1002.94
2017-11-21T00:07:02.110Z,1002.95
2017-11-21T00:07:28.263Z,1002.97
2017-11-21T00:07:54.411Z,1003.02
2017-11-21T00:08:20.553Z,1002.98
2017-11-21T00:08:46.702Z,1002.99
2017-11-21T00:09:12.842Z,1002.99
2017-11-21T00:09:39.022Z,1003.02
2017-11-21T00:10:05.170Z,1003
2017-11-21T00:10:31.318Z,1002.98
2017-11-21T00:10:57.458Z,1003
2017-11-21T00:11:23.602Z,1003.05
2017-11-21T00:11:49.754Z,1003.02
2017-11-21T00:12:15.925Z,1003
2017-11-21T00:12:42.074Z,1003
2017-11-21T00:13:08.229Z,1002.99
2017-11-21T00:13:34.369Z,1002.97
2017-11-21T00:14:00.519Z,1002.99
2017-11-21T00:14:26.659Z,1003.01
2017-11-21T00:14:52.806Z,1003.02
2017-11-21T00:15:18.951Z,1003.01
2017-11-21T00:15:45.116Z,1002.96
2017-11-21T00:16:11.287Z,1002.99
2017-11-21T00:16:37.428Z,1002.99
2017-11-21T00:17:03.581Z,1002.99
2017-11-21T00:17:29.727Z,1003.01
2017-11-21T00:17:55.881Z,1002.98
2017-11-21T00:18:22.029Z,1002.98
2017-11-21T00:18:48.165Z,1003
2017-11-21T00:19:14.311Z,1002.98
2017-11-21T00:19:40.455Z,1002.99
2017-11-21T00:20:06.591Z,1002.96
2017-11-21T00:20:32.768Z,1002.96
2017-11-21T00:20:58.913Z,1002.97
2017-11-21T00:21:25.057Z,1002.96
2017-11-21T00:21:51.208Z,1002.96
2017-11-21T00:22:17.354Z,1002.93
2017-11-21T00:22:43.503Z,1002.94
2017-11-21T00:23:09.653Z,1002.92
2017-11-21T00:23:35.822Z,1002.95
2017-11-21T00:24:01.976Z,1002.92
2017-11-21T00:24:28.117Z,1003.02
2017-11-21T00:24:54.259Z,1002.94
2017-11-21T00:25:20.403Z,1002.93
2017-11-21T00:25:46.554Z,1002.95
2017-11-21T00:26:12.699Z,1002.96
2017-11-21T00:26:38.847Z,1002.96
2017-11-21T00:27:04.991Z,1002.94
2017-11-21T00:27:31.135Z,1002.92
2017-11-21T00:27:57.284Z,1002.95
2017-11-21T00:28:23.461Z,1002.94
2017-11-21T00:28:49.687Z,1002.95
2017-11-21T00:29:15.839Z,1002.93
2017-11-21T00:29:42.036Z,1003
2017-11-21T00:30:08.214Z,1002.94
2017-11-21T00:30:34.355Z,1003
2017-11-21T00:31:00.521Z,1003.03
2017-11-21T00:31:26.655Z,1003
2017-11-21T00:31:52.806Z,1002.94
2017-11-21T00:32:18.980Z,1002.95
2017-11-21T00:32:45.128Z,1002.96
2017-11-21T00:33:11.270Z,1002.96
2017-11-21T00:33:37.416Z,1002.99
2017-11-21T00:34:03.661Z,1002.98
2017-11-21T00:34:29.752Z,1002.92
2017-11-21T00:34:55.911Z,1002.89
2017-11-21T00:35:22.045Z,1002.91
2017-11-21T00:35:48.197Z,1002.96
2017-11-21T00:36:14.343Z,1002.95
2017-11-21T00:36:40.483Z,1002.93
2017-11-21T00:37:06.629Z,1002.97
2017-11-21T00:37:32.788Z,1002.98
2017-11-21T00:37:58.922Z,1002.97
2017-11-21T00:38:25.098Z,1003.01
2017-11-21T00:38:51.250Z,1003
2017-11-21T00:39:17.422Z,1003.04
2017-11-21T00:39:43.566Z,1002.97
2017-11-21T00:40:09.712Z,1003.05
2017-11-21T00:40:35.858Z,1003.06
2017-11-21T00:41:02.018Z,1003.02
2017-11-21T00:41:28.170Z,1002.98
2017-11-21T00:41:54.316Z,1003.04
2017-11-21T00:42:20.468Z,1003.04
2017-11-21T00:42:46.635Z,1003.1
2017-11-21T00:43:12.807Z,1003.06
2017-11-21T00:43:38.945Z,1003.05
2017-11-21T00:44:05.120Z,1003.04
2017-11-21T00:44:31.291Z,1003.09
2017-11-21T00:44:57.456Z,1003.1
2017-11-21T00:45:23.634Z,1003.08
2017-11-21T00:45:49.803Z,1003.14
2017-11-21T00:46:15.941Z,1003.12
2017-11-21T00:46:42.093Z,1003.16
2017-11-21T00:47:08.238Z,1003.11
2017-11-21T00:47:34.387Z,1003.15
2017-11-21T00:48:00.576Z,1003.13
2017-11-21T00:48:26.717Z,1003.15
2017-11-21T00:48:52.863Z,1003.16
2017-11-21T00:49:19.002Z,1003.15
2017-11-21T00:49:45.150Z,1003.2
2017-11-21T00:50:11.322Z,1003.16
2017-11-21T00:50:37.462Z,1003.18
2017-11-21T00:51:03.614Z,1003.25
2017-11-21T00:51:29.763Z,1003.25
2017-11-21T00:51:55.906Z,1003.24
2017-11-21T00:52:22.051Z,1003.22
2017-11-21T00:52:48.202Z,1003.22
2017-11-21T00:53:14.341Z,1003.25
2017-11-21T00:53:40.488Z,1003.22
2017-11-21T00:54:06.666Z,1003.31
2017-11-21T00:54:32.807Z,1003.29
2017-11-21T00:54:58.950Z,1003.32
2017-11-21T00:55:25.104Z,1003.28
2017-11-21T00:55:51.241Z,1003.31
2017-11-21T00:56:17.392Z,1003.31
2017-11-21T00:56:43.532Z,1003.35
2017-11-21T00:57:09.684Z,1003.32
2017-11-21T00:57:35.829Z,1003.32
2017-11-21T00:58:01.970Z,1003.28
2017-11-21T00:58:28.112Z,1003.3
2017-11-21T00:58:54.260Z,1003.31
2017-11-21T00:59:20.408Z,1003.34
2017-11-21T00:59:46.552Z,1003.33
2017-11-21T01:00:12.696Z,1003.36
2017-11-21T01:00:38.843Z,1003.36
2017-11-21T01:01:04.984Z,1003.34
2017-11-21T01:01:31.132Z,1003.38
2017-11-21T01:01:57.281Z,1003.33
2017-11-21T01:02:23.428Z,1003.33
2017-11-21T01:02:49.564Z,1003.37
2017-11-21T01:03:15.709Z,1003.35
2017-11-21T01:03:41.855Z,1003.31
2017-11-21T01:04:07.995Z,1003.33
2017-11-21T01:04:34.142Z,1003.37
2017-11-21T01:05:00.313Z,1003.32
2017-11-21T01:05:26.440Z,1003.38
2017-11-21T01:05:52.558Z,1003.34
2017-11-21T01:06:18.704Z,1003.33
2017-11-21T01:06:44.823Z,1003.36
2017-11-21T01:07:10.947Z,1003.35
2017-11-21T01:07:37.068Z,1003.37
2017-11-21T01:08:03.192Z,1003.41
2017-11-21T01:08:29.321Z,1003.4
2017-11-21T01:08:55.455Z,1003.41
2017-11-21T01:09:21.589Z,1003.42
2017-11-21T01:09:47.708Z,1003.42
2017-11-21T01:10:13.835Z,1003.42
2017-11-21T01:10:39.949Z,1003.39
2017-11-21T01:11:06.073Z,1003.43
2017-11-21T01:11:32.201Z,1003.38
2017-11-21T01:11:58.322Z,1003.35
2017-11-21T01:12:24.440Z,1003.41
2017-11-21T01:12:50.565Z,1003.42
2017-11-21T01:13:16.682Z,1003.42
2017-11-21T01:13:42.812Z,1003.42
2017-11-21T01:14:08.929Z,1003.43
2017-11-21T01:14:35.053Z,1003.44
2017-11-21T01:15:01.177Z,1003.45
2017-11-21T01:15:27.304Z,1003.48
2017-11-21T01:15:53.428Z,1003.52
2017-11-21T01:16:19.543Z,1003.48
2017-11-21T01:16:45.675Z,1003.54
2017-11-21T01:17:11.790Z,1003.53
2017-11-21T01:17:37.917Z,1003.5
2017-11-21T01:18:04.038Z,1003.55
2017-11-21T01:18:30.155Z,1003.53
2017-11-21T01:18:56.282Z,1003.53
2017-11-21T01:19:22.400Z,1003.53
2017-11-21T01:19:48.526Z,1003.45
2017-11-21T01:20:14.651Z,1003.47
2017-11-21T01:20:40.776Z,1003.44
2017-11-21T01:21:06.900Z,1003.43
2017-11-21T01:21:33.020Z,1003.5
2017-11-21T01:21:59.189Z,1003.4
2017-11-21T01:22:25.304Z,1003.51
2017-11-21T01:22:51.448Z,1003.46
2017-11-21T01:23:17.552Z,1003.46
2017-11-21T01:23:43.681Z,1003.48
2017-11-21T01:24:09.797Z,1003.48
2017-11-21T01:24:35.925Z,1003.47
2017-11-21T01:25:02.047Z,1003.43
2017-11-21T01:25:28.169Z,1003.5
2017-11-21T01:25:54.283Z,1003.43
2017-11-21T01:26:20.415Z,1003.47
2017-11-21T01:26:46.555Z,1003.46
2017-11-21T01:27:12.699Z,1003.5
2017-11-21T01:27:38.822Z,1003.49
2017-11-21T01:28:04.937Z,1003.49
2017-11-21T01:28:31.060Z,1003.5
2017-11-21T01:28:57.176Z,1003.52
2017-11-21T01:29:23.299Z,1003.53
2017-11-21T01:29:49.442Z,1003.54
2017-11-21T01:30:15.578Z,1003.48
2017-11-21T01:30:41.704Z,1003.52
2017-11-21T01:31:07.827Z,1003.58
2017-11-21T01:31:33.965Z,1003.53
2017-11-21T01:32:00.084Z,1003.56
2017-11-21T01:32:26.204Z,1003.56
2017-11-21T01:32:52.324Z,1003.57
2017-11-21T01:33:18.446Z,1003.57
2017-11-21T01:33:44.574Z,1003.6
2017-11-21T01:34:10.701Z,1003.59
2017-11-21T01:34:36.824Z,1003.59
2017-11-21T01:35:02.955Z,1003.58
2017-11-21T01:35:29.069Z,1003.57
2017-11-21T01:35:55.195Z,1003.59
2017-11-21T01:36:21.313Z,1003.5
2017-11-21T01:36:47.440Z,1003.6
2017-11-21T01:37:13.559Z,1003.62
2017-11-21T01:37:39.680Z,1003.6
2017-11-21T01:38:05.808Z,1003.62
2017-11-21T01:38:31.925Z,1003.62
2017-11-21T01:38:58.051Z,1003.59
2017-11-21T01:39:24.176Z,1003.62
2017-11-21T01:39:50.302Z,1003.56
2017-11-21T01:40:16.424Z,1003.56
2017-11-21T01:40:42.544Z,1003.52
2017-11-21T01:41:08.670Z,1003.58
2017-11-21T01:41:34.786Z,1003.55
2017-11-21T01:42:00.913Z,1003.51
2017-11-21T01:42:27.034Z,1003.55
2017-11-21T01:42:53.151Z,1003.53
2017-11-21T01:43:19.281Z,1003.54
2017-11-21T01:43:45.404Z,1003.57
2017-11-21T01:44:11.528Z,1003.59
2017-11-21T01:44:37.646Z,1003.6
2017-11-21T01:45:03.763Z,1003.59
2017-11-21T01:45:29.909Z,1003.56
2017-11-21T01:45:56.029Z,1003.59
2017-11-21T01:46:22.171Z,1003.6
2017-11-21T01:46:48.293Z,1003.58
2017-11-21T01:47:14.439Z,1003.59
2017-11-21T01:47:40.576Z,1003.56
2017-11-21T01:48:06.704Z,1003.59
2017-11-21T01:48:32.825Z,1003.57
2017-11-21T01:48:58.950Z,1003.63
2017-11-21T01:49:25.091Z,1003.59
2017-11-21T01:49:51.225Z,1003.54
2017-11-21T01:50:17.346Z,1003.55
2017-11-21T01:50:43.474Z,1003.58
2017-11-21T01:51:09.590Z,1003.6
2017-11-21T01:51:35.711Z,1003.62
2017-11-21T01:52:01.847Z,1003.59
2017-11-21T01:52:27.975Z,1003.58
2017-11-21T01:52:54.117Z,1003.59
2017-11-21T01:53:20.221Z,1003.59
2017-11-21T01:53:46.350Z,1003.61
2017-11-21T01:54:12.476Z,1003.64
2017-11-21T01:54:38.611Z,1003.63
2017-11-21T01:55:04.733Z,1003.63
2017-11-21T01:55:30.857Z,1003.58
2017-11-21T01:55:56.979Z,1003.63
2017-11-21T01:56:23.125Z,1003.63
2017-11-21T01:56:49.252Z,1003.58
2017-11-21T01:57:15.376Z,1003.61
2017-11-21T01:57:41.494Z,1003.6
2017-11-21T01:58:07.618Z,1003.57
2017-11-21T01:58:33.743Z,1003.56
2017-11-21T01:58:59.865Z,1003.57
2017-11-21T01:59:25.984Z,1003.6
2017-11-21T01:59:52.107Z,1003.63
2017-11-21T02:00:18.237Z,1003.58
2017-11-21T02:00:44.360Z,1003.62
2017-11-21T02:01:10.505Z,1003.62
2017-11-21T02:01:36.641Z,1003.56
2017-11-21T02:02:02.768Z,1003.55
2017-11-21T02:02:28.914Z,1003.57
2017-11-21T02:02:55.009Z,1003.56
2017-11-21T02:03:21.137Z,1003.58
2017-11-21T02:03:47.259Z,1003.57
2017-11-21T02:04:13.376Z,1003.6
2017-11-21T02:04:39.497Z,1003.54
2017-11-21T02:05:05.624Z,1003.58
2017-11-21T02:05:31.750Z,1003.56
2017-11-21T02:05:57.872Z,1003.56
2017-11-21T02:06:23.996Z,1003.6
2017-11-21T02:06:50.118Z,1003.53
2017-11-21T02:07:16.241Z,1003.6
2017-11-21T02:07:42.363Z,1003.57
2017-11-21T02:08:08.508Z,1003.61
2017-11-21T02:08:34.628Z,1003.63
2017-11-21T02:09:00.751Z,1003.62
2017-11-21T02:09:26.868Z,1003.61
2017-11-21T02:09:52.997Z,1003.61
2017-11-21T02:10:19.122Z,1003.62
2017-11-21T02:10:45.244Z,1003.62
2017-11-21T02:11:11.363Z,1003.59
2017-11-21T02:11:37.481Z,1003.61
2017-11-21T02:12:03.599Z,1003.66
2017-11-21T02:12:29.743Z,1003.63
2017-11-21T02:12:55.842Z,1003.62
2017-11-21T02:13:21.962Z,1003.61
2017-11-21T02:13:48.093Z,1003.58
2017-11-21T02:14:14.216Z,1003.6
2017-11-21T02:14:40.336Z,1003.56
2017-11-21T02:15:06.466Z,1003.55
2017-11-21T02:15:32.585Z,1003.53
2017-11-21T02:15:58.713Z,1003.55
2017-11-21T02:16:24.856Z,1003.54
2017-11-21T02:16:50.978Z,1003.59
2017-11-21T02:17:17.099Z,1003.6
2017-11-21T02:17:43.225Z,1003.6
2017-11-21T02:18:09.343Z,1003.59
2017-11-21T02:18:35.470Z,1003.56
2017-11-21T02:19:01.593Z,1003.57
2017-11-21T02:19:27.710Z,1003.51
2017-11-21T02:19:53.839Z,1003.54
2017-11-21T02:20:19.966Z,1003.55
2017-11-21T02:20:46.092Z,1003.51
2017-11-21T02:21:12.233Z,1003.53
2017-11-21T02:21:38.354Z,1003.53
2017-11-21T02:22:04.471Z,1003.56
2017-11-21T02:22:30.619Z,1003.51
2017-11-21T02:22:56.737Z,1003.52
2017-11-21T02:23:22.862Z,1003.49
2017-11-21T02:23:48.989Z,1003.53
2017-11-21T02:24:15.109Z,1003.56
2017-11-21T02:24:41.260Z,1003.53
2017-11-21T02:25:07.376Z,1003.54
2017-11-21T02:25:33.503Z,1003.54
2017-11-21T02:25:59.618Z,1003.47
2017-11-21T02:26:25.741Z,1003.51
2017-11-21T02:26:51.870Z,1003.52
2017-11-21T02:27:17.997Z,1003.55
2017-11-21T02:27:44.115Z,1003.47
2017-11-21T02:28:10.234Z,1003.54
2017-11-21T02:28:36.360Z,1003.5
2017-11-21T02:29:02.478Z,1003.5
2017-11-21T02:29:28.603Z,1003.51
2017-11-21T02:29:54.755Z,1003.51
2017-11-21T02:30:20.873Z,1003.53
2017-11-21T02:30:47.004Z,1003.4
2017-11-21T02:31:13.137Z,1003.46
2017-11-21T02:31:39.264Z,1003.46
2017-11-21T02:32:05.379Z,1003.49
2017-11-21T02:32:31.501Z,1003.5
2017-11-21T02:32:57.626Z,1003.51
2017-11-21T02:33:23.750Z,1003.49
2017-11-21T02:33:49.879Z,1003.5
2017-11-21T02:34:16.004Z,1003.51
2017-11-21T02:34:42.130Z,1003.53
2017-11-21T02:35:08.247Z,1003.53
2017-11-21T02:35:34.368Z,1003.53
2017-11-21T02:36:00.490Z,1003.52
2017-11-21T02:36:26.614Z,1003.52
2017-11-21T02:36:52.725Z,1003.53
2017-11-21T02:37:18.902Z,1003.53
2017-11-21T02:37:45.021Z,1003.53
2017-11-21T02:38:11.153Z,1003.51
2017-11-21T02:38:37.263Z,1003.52
2017-11-21T02:39:03.412Z,1003.53
2017-11-21T02:39:29.541Z,1003.55
2017-11-21T02:39:55.653Z,1003.54
2017-11-21T02:40:21.774Z,1003.51
2017-11-21T02:40:47.899Z,1003.48
2017-11-21T02:41:14.016Z,1003.49
2017-11-21T02:41:40.143Z,1003.48
2017-11-21T02:42:06.269Z,1003.52
2017-11-21T02:42:32.419Z,1003.49
2017-11-21T02:42:58.535Z,1003.5
2017-11-21T02:43:24.655Z,1003.52
2017-11-21T02:43:50.778Z,1003.48
2017-11-21T02:44:16.895Z,1003.54
2017-11-21T02:44:43.031Z,1003.58
2017-11-21T02:45:09.172Z,1003.56
2017-11-21T02:45:35.300Z,1003.54
2017-11-21T02:46:01.438Z,1003.59
2017-11-21T02:46:27.554Z,1003.55
2017-11-21T02:46:53.693Z,1003.58
2017-11-21T02:47:19.813Z,1003.56
2017-11-21T02:47:45.964Z,1003.53
2017-11-21T02:48:12.088Z,1003.49
2017-11-21T02:48:38.206Z,1003.5
2017-11-21T02:49:04.354Z,1003.49
2017-11-21T02:49:30.478Z,1003.48
2017-11-21T02:49:56.607Z,1003.51
2017-11-21T02:50:22.724Z,1003.5
2017-11-21T02:50:48.848Z,1003.52
2017-11-21T02:51:14.974Z,1003.55
2017-11-21T02:51:41.089Z,1003.54
2017-11-21T02:52:07.225Z,1003.56
2017-11-21T02:52:33.357Z,1003.57
2017-11-21T02:52:59.483Z,1003.58
2017-11-21T02:53:25.602Z,1003.53
2017-11-21T02:53:51.729Z,1003.59
2017-11-21T02:54:17.871Z,1003.54
2017-11-21T02:54:43.990Z,1003.53
2017-11-21T02:55:10.109Z,1003.57
2017-11-21T02:55:36.253Z,1003.55
2017-11-21T02:56:02.400Z,1003.55
2017-11-21T02:56:28.514Z,1003.53
2017-11-21T02:56:54.649Z,1003.51
2017-11-21T02:57:20.762Z,1003.47
2017-11-21T02:57:46.906Z,1003.49
2017-11-21T02:58:13.050Z,1003.49
2017-11-21T02:58:39.169Z,1003.53
2017-11-21T02:59:05.293Z,1003.52
2017-11-21T02:59:31.421Z,1003.49
2017-11-21T02:59:57.538Z,1003.5
2017-11-21T03:00:23.664Z,1003.51
2017-11-21T03:00:49.782Z,1003.5
2017-11-21T03:01:15.934Z,1003.53
2017-11-21T03:01:42.053Z,1003.53
2017-11-21T03:02:08.175Z,1003.56
2017-11-21T03:02:34.299Z,1003.54
2017-11-21T03:03:00.430Z,1003.54
2017-11-21T03:03:26.555Z,1003.51
2017-11-21T03:03:52.683Z,1003.52
2017-11-21T03:04:18.800Z,1003.54
2017-11-21T03:04:44.922Z,1003.55
2017-11-21T03:05:11.048Z,1003.55
2017-11-21T03:05:37.174Z,1003.54
2017-11-21T03:06:03.313Z,1003.53
2017-11-21T03:06:29.452Z,1003.52
2017-11-21T03:06:55.599Z,1003.57
2017-11-21T03:07:21.717Z,1003.53
2017-11-21T03:07:47.838Z,1003.54
2017-11-21T03:08:13.963Z,1003.51
2017-11-21T03:08:40.084Z,1003.49
2017-11-21T03:09:06.204Z,1003.49
2017-11-21T03:09:32.322Z,1003.55
2017-11-21T03:09:58.444Z,1003.54
2017-11-21T03:10:24.568Z,1003.51
2017-11-21T03:10:50.700Z,1003.54
2017-11-21T03:11:16.837Z,1003.48
2017-11-21T03:11:42.965Z,1003.55
2017-11-21T03:12:09.086Z,1003.53
2017-11-21T03:12:35.203Z,1003.54
2017-11-21T03:13:01.330Z,1003.54
2017-11-21T03:13:27.454Z,1003.54
2017-11-21T03:13:53.571Z,1003.56
2017-11-21T03:14:19.696Z,1003.57
2017-11-21T03:14:45.821Z,1003.58
2017-11-21T03:15:11.946Z,1003.56
2017-11-21T03:15:38.062Z,1003.58
2017-11-21T03:16:04.182Z,1003.57
2017-11-21T03:16:30.310Z,1003.59
2017-11-21T03:16:56.437Z,1003.66
2017-11-21T03:17:22.558Z,1003.6
2017-11-21T03:17:48.681Z,1003.61
2017-11-21T03:18:14.806Z,1003.64
2017-11-21T03:18:40.941Z,1003.64
2017-11-21T03:19:07.065Z,1003.67
2017-11-21T03:19:33.189Z,1003.64
2017-11-21T03:19:59.311Z,1003.64
2017-11-21T03:20:25.428Z,1003.7
2017-11-21T03:20:51.556Z,1003.66
2017-11-21T03:21:17.683Z,1003.63
2017-11-21T03:21:43.800Z,1003.68
2017-11-21T03:22:09.926Z,1003.66
2017-11-21T03:22:36.065Z,1003.7
2017-11-21T03:23:02.190Z,1003.71
2017-11-21T03:23:28.313Z,1003.65
2017-11-21T03:23:54.451Z,1003.65
2017-11-21T03:24:20.597Z,1003.66
2017-11-21T03:24:46.720Z,1003.68
2017-11-21T03:25:12.864Z,1003.67
2017-11-21T03:25:39.007Z,1003.66
2017-11-21T03:26:05.136Z,1003.65
2017-11-21T03:26:31.261Z,1003.62
2017-11-21T03:26:57.378Z,1003.61
2017-11-21T03:27:23.497Z,1003.65
2017-11-21T03:27:49.616Z,1003.62
2017-11-21T03:28:15.744Z,1003.61
2017-11-21T03:28:41.865Z,1003.67
2017-11-21T03:29:07.990Z,1003.62
2017-11-21T03:29:34.116Z,1003.63
2017-11-21T03:30:00.240Z,1003.64
2017-11-21T03:30:26.364Z,1003.64
2017-11-21T03:30:52.503Z,1003.67
2017-11-21T03:31:18.654Z,1003.67
2017-11-21T03:31:44.763Z,1003.65
2017-11-21T03:32:10.887Z,1003.62
2017-11-21T03:32:37.003Z,1003.63
2017-11-21T03:33:03.130Z,1003.63
2017-11-21T03:33:29.264Z,1003.67
2017-11-21T03:33:55.388Z,1003.67
2017-11-21T03:34:21.531Z,1003.63
2017-11-21T03:34:47.648Z,1003.65
2017-11-21T03:35:13.775Z,1003.65
2017-11-21T03:35:39.903Z,1003.64
2017-11-21T03:36:06.021Z,1003.66
2017-11-21T03:36:32.146Z,1003.65
2017-11-21T03:36:58.264Z,1003.68
2017-11-21T03:37:24.391Z,1003.66
2017-11-21T03:37:50.520Z,1003.63
2017-11-21T03:38:16.643Z,1003.66
2017-11-21T03:38:42.759Z,1003.67
2017-11-21T03:39:08.887Z,1003.64
2017-11-21T03:39:35.011Z,1003.63
2017-11-21T03:40:01.127Z,1003.67
2017-11-21T03:40:27.256Z,1003.63
2017-11-21T03:40:53.377Z,1003.68
2017-11-21T03:41:19.506Z,1003.66
2017-11-21T03:41:45.642Z,1003.69
2017-11-21T03:42:11.769Z,1003.66
2017-11-21T03:42:37.892Z,1003.68
2017-11-21T03:43:04.008Z,1003.68
2017-11-21T03:43:30.136Z,1003.63
2017-11-21T03:43:56.276Z,1003.66
2017-11-21T03:44:22.399Z,1003.68
2017-11-21T03:44:48.530Z,1003.66
2017-11-21T03:45:14.649Z,1003.69
2017-11-21T03:45:40.763Z,1003.63
2017-11-21T03:46:06.897Z,1003.64
2017-11-21T03:46:33.040Z,1003.68
2017-11-21T03:46:59.158Z,1003.68
2017-11-21T03:47:25.307Z,1003.68
2017-11-21T03:47:51.429Z,1003.65
2017-11-21T03:48:17.547Z,1003.7
2017-11-21T03:48:43.676Z,1003.65
2017-11-21T03:49:09.790Z,1003.69
2017-11-21T03:49:35.939Z,1003.66
2017-11-21T03:50:02.057Z,1003.68
2017-11-21T03:50:28.188Z,1003.67
2017-11-21T03:50:54.315Z,1003.69
2017-11-21T03:51:20.430Z,1003.67
2017-11-21T03:51:46.550Z,1003.72
2017-11-21T03:52:12.673Z,1003.68
2017-11-21T03:52:38.790Z,1003.7
2017-11-21T03:53:04.915Z,1003.67
2017-11-21T03:53:31.046Z,1003.68
2017-11-21T03:53:57.161Z,1003.67
2017-11-21T03:54:23.305Z,1003.68
2017-11-21T03:54:49.426Z,1003.67
2017-11-21T03:55:15.567Z,1003.68
2017-11-21T03:55:41.700Z,1003.68
2017-11-21T03:56:07.843Z,1003.66
2017-11-21T03:56:33.966Z,1003.72
2017-11-21T03:57:00.084Z,1003.68
2017-11-21T03:57:26.206Z,1003.73
2017-11-21T03:57:52.331Z,1003.7
2017-11-21T03:58:18.454Z,1003.72
2017-11-21T03:58:44.601Z,1003.7
2017-11-21T03:59:10.720Z,1003.73
2017-11-21T03:59:36.842Z,1003.68
2017-11-21T04:00:02.969Z,1003.72
2017-11-21T04:00:29.112Z,1003.74
2017-11-21T04:00:55.232Z,1003.75
2017-11-21T04:01:21.350Z,1003.74
2017-11-21T04:01:47.475Z,1003.76
2017-11-21T04:02:13.620Z,1003.75
2017-11-21T04:02:39.749Z,1003.74
2017-11-21T04:03:05.871Z,1003.75
2017-11-21T04:03:31.993Z,1003.73
2017-11-21T04:03:58.154Z,1003.77
2017-11-21T04:04:24.283Z,1003.78
2017-11-21T04:04:50.407Z,1003.76
2017-11-21T04:05:16.525Z,1003.74
2017-11-21T04:05:42.651Z,1003.78
2017-11-21T04:06:08.767Z,1003.76
2017-11-21T04:06:34.896Z,1003.77
2017-11-21T04:07:01.015Z,1003.76
2017-11-21T04:07:27.142Z,1003.75
2017-11-21T04:07:53.259Z,1003.78
2017-11-21T04:08:19.406Z,1003.77
2017-11-21T04:08:45.555Z,1003.79
2017-11-21T04:09:11.672Z,1003.79
2017-11-21T04:09:37.797Z,1003.83
2017-11-21T04:10:03.914Z,1003.83
2017-11-21T04:10:30.044Z,1003.78
2017-11-21T04:10:56.166Z,1003.79
2017-11-21T04:11:22.286Z,1003.79
2017-11-21T04:11:48.436Z,1003.81
2017-11-21T04:12:14.583Z,1003.82
2017-11-21T04:12:40.727Z,1003.8
2017-11-21T04:13:06.847Z,1003.82
2017-11-21T04:13:33.012Z,1003.82
2017-11-21T04:13:59.141Z,1003.8
2017-11-21T04:14:25.266Z,1003.82
2017-11-21T04:14:51.382Z,1003.82
2017-11-21T04:15:17.500Z,1003.8
2017-11-21T04:15:43.619Z,1003.84
2017-11-21T04:16:09.748Z,1003.81
2017-11-21T04:16:35.873Z,1003.79
2017-11-21T04:17:01.988Z,1003.82
2017-11-21T04:17:28.115Z,1003.8
2017-11-21T04:17:54.237Z,1003.83
2017-11-21T04:18:20.358Z,1003.82
2017-11-21T04:18:46.477Z,1003.78
2017-11-21T04:19:12.612Z,1003.81
2017-11-21T04:19:38.729Z,1003.79
2017-11-21T04:20:04.880Z,1003.82
2017-11-21T04:20:30.996Z,1003.81
2017-11-21T04:20:57.123Z,1003.82
2017-11-21T04:21:23.248Z,1003.82
2017-11-21T04:21:49.365Z,1003.85
2017-11-21T04:22:15.486Z,1003.84
2017-11-21T04:22:41.609Z,1003.85
2017-11-21T04:23:07.728Z,1003.82
2017-11-21T04:23:33.850Z,1003.82
2017-11-21T04:23:59.978Z,1003.8
2017-11-21T04:24:26.096Z,1003.83
2017-11-21T04:24:52.227Z,1003.81
2017-11-21T04:25:18.344Z,1003.79
2017-11-21T04:25:44.465Z,1003.77
2017-11-21T04:26:10.590Z,1003.77
2017-11-21T04:26:36.709Z,1003.83
2017-11-21T04:27:02.835Z,1003.84
2017-11-21T04:27:28.956Z,1003.83
2017-11-21T04:27:55.081Z,1003.85
2017-11-21T04:28:21.205Z,1003.8
2017-11-21T04:28:47.324Z,1003.83
2017-11-21T04:29:13.459Z,1003.87
2017-11-21T04:29:39.569Z,1003.88
2017-11-21T04:30:05.690Z,1003.88
2017-11-21T04:30:31.818Z,1003.83
2017-11-21T04:30:57.939Z,1003.87
2017-11-21T04:31:24.079Z,1003.91
2017-11-21T04:31:50.203Z,1003.89
2017-11-21T04:32:16.325Z,1003.91
2017-11-21T04:32:42.449Z,1003.9
2017-11-21T04:33:08.575Z,1003.88
2017-11-21T04:33:34.699Z,1003.88
2017-11-21T04:34:00.824Z,1003.88
2017-11-21T04:34:26.944Z,1003.9
2017-11-21T04:34:53.085Z,1003.91
2017-11-21T04:35:19.216Z,1003.86
2017-11-21T04:35:45.332Z,1003.89
2017-11-21T04:36:11.455Z,1003.9
2017-11-21T04:36:37.579Z,1003.9
2017-11-21T04:37:03.703Z,1003.94
2017-11-21T04:37:29.852Z,1003.94
2017-11-21T04:37:55.961Z,1003.93
2017-11-21T04:38:22.113Z,1003.91
2017-11-21T04:38:48.243Z,1003.9
2017-11-21T04:39:14.370Z,1003.89
2017-11-21T04:39:40.496Z,1003.85
2017-11-21T04:40:06.616Z,1003.85
2017-11-21T04:40:32.732Z,1003.81
2017-11-21T04:40:58.854Z,1003.79
2017-11-21T04:41:25.008Z,1003.82
2017-11-21T04:41:51.118Z,1003.83
2017-11-21T04:42:17.240Z,1003.83
2017-11-21T04:42:43.369Z,1003.83
2017-11-21T04:43:09.505Z,1003.85
2017-11-21T04:43:35.685Z,1003.82
2017-11-21T04:44:01.773Z,1003.81
2017-11-21T04:44:27.900Z,1003.75
2017-11-21T04:44:54.026Z,1003.78
2017-11-21T04:45:20.163Z,1003.8
2017-11-21T04:45:46.283Z,1003.76
2017-11-21T04:46:12.428Z,1003.78
2017-11-21T04:46:38.543Z,1003.75
2017-11-21T04:47:04.672Z,1003.78
2017-11-21T04:47:30.798Z,1003.78
2017-11-21T04:47:56.915Z,1003.78
2017-11-21T04:48:23.036Z,1003.78
2017-11-21T04:48:49.162Z,1003.76
2017-11-21T04:49:15.285Z,1003.75
2017-11-21T04:49:41.403Z,1003.74
2017-11-21T04:50:07.530Z,1003.75
2017-11-21T04:50:33.678Z,1003.72
2017-11-21T04:50:59.835Z,1003.71
2017-11-21T04:51:25.965Z,1003.7
2017-11-21T04:51:52.083Z,1003.76
2017-11-21T04:52:18.208Z,1003.76
2017-11-21T04:52:44.359Z,1003.71
2017-11-21T04:53:10.479Z,1003.73
2017-11-21T04:53:36.605Z,1003.7
2017-11-21T04:54:02.730Z,1003.7
2017-11-21T04:54:28.874Z,1003.69
2017-11-21T04:54:54.996Z,1003.71
2017-11-21T04:55:21.117Z,1003.71
2017-11-21T04:55:47.235Z,1003.73
2017-11-21T04:56:13.356Z,1003.69
2017-11-21T04:56:39.487Z,1003.68
2017-11-21T04:57:05.626Z,1003.69
2017-11-21T04:57:31.761Z,1003.67
2017-11-21T04:57:57.877Z,1003.66
2017-11-21T04:58:23.994Z,1003.73
2017-11-21T04:58:50.124Z,1003.72
2017-11-21T04:59:16.247Z,1003.69
2017-11-21T04:59:42.370Z,1003.68
2017-11-21T05:00:08.488Z,1003.72
2017-11-21T05:00:34.603Z,1003.73
2017-11-21T05:01:00.726Z,1003.73
2017-11-21T05:01:26.855Z,1003.8
2017-11-21T05:01:52.990Z,1003.78
2017-11-21T05:02:19.108Z,1003.77
2017-11-21T05:02:45.237Z,1003.77
2017-11-21T05:03:11.356Z,1003.76
2017-11-21T05:03:37.480Z,1003.74
2017-11-21T05:04:03.602Z,1003.75
2017-11-21T05:04:29.726Z,1003.76
2017-11-21T05:04:55.851Z,1003.77
2017-11-21T05:05:21.974Z,1003.77
2017-11-21T05:05:48.100Z,1003.75
2017-11-21T05:06:14.241Z,1003.76
2017-11-21T05:06:40.361Z,1003.76
2017-11-21T05:07:06.488Z,1003.8
2017-11-21T05:07:32.624Z,1003.8
2017-11-21T05:07:58.748Z,1003.78
2017-11-21T05:08:24.876Z,1003.77
2017-11-21T05:08:50.996Z,1003.8
2017-11-21T05:09:17.119Z,1003.83
2017-11-21T05:09:43.245Z,1003.8
2017-11-21T05:10:09.368Z,1003.79
2017-11-21T05:10:35.484Z,1003.83
2017-11-21T05:11:01.606Z,1003.84
2017-11-21T05:11:27.738Z,1003.86
2017-11-21T05:11:53.860Z,1003.86
2017-11-21T05:12:19.975Z,1003.87
2017-11-21T05:12:46.094Z,1003.85
2017-11-21T05:13:12.224Z,1003.87
2017-11-21T05:13:38.348Z,1003.84
2017-11-21T05:14:04.486Z,1003.85
2017-11-21T05:14:30.609Z,1003.86
2017-11-21T05:14:56.754Z,1003.89
2017-11-21T05:15:22.880Z,1003.84
2017-11-21T05:15:48.998Z,1003.84
2017-11-21T05:16:15.120Z,1003.82
2017-11-21T05:16:41.250Z,1003.88
2017-11-21T05:17:07.377Z,1003.84